sensor_id;sensor_type;location;lat;lon;timestamp;P1;durP1;ratioP1;P2;durP2;ratioP2
64966;SDS011;51710;38.732;-121.358;2022-12-07T00:01:23;0.63;;;0.45;;
64966;SDS011;51710;38.732;-121.358;2022-12-07T00:03:53;1.13;;;0.40;;
64966;SDS011;51710;38.732;-121.358;2022-12-07T00:06:23;2.08;;;0.75;;
64966;SDS011;51710;38.732;-121.358;2022-12-07T00:08:49;2.92;;;0.47;;
64966;SDS011;51710;38.732;-121.358;2022-12-07T00:11:17;2.80;;;0.60;;
64966;SDS011;51710;38.732;-121.358;2022-12-07T00:13:45;4.43;;;1.23;;
64966;SDS011;51710;38.732;-121.358;2022-12-07T00:16:15;0.47;;;0.40;;
64966;SDS011;51710;38.732;-121.358;2022-12-07T00:18:44;3.95;;;0.70;;
64966;SDS011;51710;38.732;-121.358;2022-12-07T00:21:12;1.33;;;0.60;;
64966;SDS011;51710;38.732;-121.358;2022-12-07T00:23:41;1.55;;;0.60;;
64966;SDS011;51710;38.732;-121.358;2022-12-07T00:26:13;2.55;;;0.80;;
64966;SDS011;51710;38.732;-121.358;2022-12-07T00:28:47;0.90;;;0.40;;
64966;SDS011;51710;38.732;-121.358;2022-12-07T00:31:19;2.05;;;0.77;;
64966;SDS011;51710;38.732;-121.358;2022-12-07T00:33:47;2.45;;;0.70;;
64966;SDS011;51710;38.732;-121.358;2022-12-07T00:36:15;2.15;;;0.60;;
64966;SDS011;51710;38.732;-121.358;2022-12-07T00:38:44;4.25;;;0.60;;
64966;SDS011;51710;38.732;-121.358;2022-12-07T00:41:12;1.42;;;0.75;;
64966;SDS011;51710;38.732;-121.358;2022-12-07T00:43:41;1.83;;;0.50;;
64966;SDS011;51710;38.732;-121.358;2022-12-07T00:46:08;3.70;;;0.70;;
64966;SDS011;51710;38.732;-121.358;2022-12-07T00:48:35;2.15;;;0.50;;
64966;SDS011;51710;38.732;-121.358;2022-12-07T00:51:02;0.63;;;0.40;;
64966;SDS011;51710;38.732;-121.358;2022-12-07T00:53:30;1.17;;;0.52;;
64966;SDS011;51710;38.732;-121.358;2022-12-07T00:55:57;3.13;;;0.70;;
64966;SDS011;51710;38.732;-121.358;2022-12-07T00:58:23;2.47;;;0.60;;
64966;SDS011;51710;38.732;-121.358;2022-12-07T01:00:50;1.40;;;0.85;;
64966;SDS011;51710;38.732;-121.358;2022-12-07T01:03:17;3.17;;;0.85;;
64966;SDS011;51710;38.732;-121.358;2022-12-07T01:05:50;1.10;;;0.50;;
64966;SDS011;51710;38.732;-121.358;2022-12-07T01:08:19;2.25;;;0.70;;
64966;SDS011;51710;38.732;-121.358;2022-12-07T01:10:46;1.58;;;0.60;;
64966;SDS011;51710;38.732;-121.358;2022-12-07T01:13:13;2.47;;;0.95;;
64966;SDS011;51710;38.732;-121.358;2022-12-07T01:15:41;2.72;;;0.60;;
64966;SDS011;51710;38.732;-121.358;2022-12-07T01:18:09;1.77;;;0.57;;
64966;SDS011;51710;38.732;-121.358;2022-12-07T01:20:36;1.40;;;0.52;;
64966;SDS011;51710;38.732;-121.358;2022-12-07T01:23:03;2.17;;;0.52;;
64966;SDS011;51710;38.732;-121.358;2022-12-07T01:25:30;3.10;;;0.70;;
64966;SDS011;51710;38.732;-121.358;2022-12-07T01:27:58;1.48;;;0.50;;
64966;SDS011;51710;38.732;-121.358;2022-12-07T01:30:25;1.65;;;0.60;;
64966;SDS011;51710;38.732;-121.358;2022-12-07T01:32:51;3.20;;;0.90;;
64966;SDS011;51710;38.732;-121.358;2022-12-07T01:35:18;2.55;;;0.93;;
64966;SDS011;51710;38.732;-121.358;2022-12-07T01:37:45;2.45;;;1.30;;
64966;SDS011;51710;38.732;-121.358;2022-12-07T01:40:11;2.35;;;0.80;;
64966;SDS011;51710;38.732;-121.358;2022-12-07T01:42:39;1.60;;;0.70;;
64966;SDS011;51710;38.732;-121.358;2022-12-07T01:45:31;1.77;;;0.60;;
64966;SDS011;51710;38.732;-121.358;2022-12-07T01:48:03;1.65;;;0.55;;
64966;SDS011;51710;38.732;-121.358;2022-12-07T01:50:31;4.13;;;0.65;;
64966;SDS011;51710;38.732;-121.358;2022-12-07T01:52:59;2.63;;;0.70;;
64966;SDS011;51710;38.732;-121.358;2022-12-07T01:55:29;1.88;;;0.80;;
64966;SDS011;51710;38.732;-121.358;2022-12-07T01:57:56;1.58;;;0.70;;
64966;SDS011;51710;38.732;-121.358;2022-12-07T02:00:23;1.88;;;0.68;;
64966;SDS011;51710;38.732;-121.358;2022-12-07T02:05:27;2.50;;;0.90;;
64966;SDS011;51710;38.732;-121.358;2022-12-07T02:07:55;0.75;;;0.40;;
64966;SDS011;51710;38.732;-121.358;2022-12-07T02:10:25;3.78;;;0.90;;
64966;SDS011;51710;38.732;-121.358;2022-12-07T02:12:56;3.17;;;0.60;;
64966;SDS011;51710;38.732;-121.358;2022-12-07T02:19:12;1.60;;;0.55;;
64966;SDS011;51710;38.732;-121.358;2022-12-07T02:21:34;0.80;;;0.50;;
64966;SDS011;51710;38.732;-121.358;2022-12-07T02:24:12;2.90;;;0.50;;
64966;SDS011;51710;38.732;-121.358;2022-12-07T02:26:55;1.75;;;0.90;;
64966;SDS011;51710;38.732;-121.358;2022-12-07T02:29:33;1.67;;;0.70;;
64966;SDS011;51710;38.732;-121.358;2022-12-07T02:32:50;2.38;;;0.80;;
64966;SDS011;51710;38.732;-121.358;2022-12-07T02:40:39;1.25;;;0.60;;
64966;SDS011;51710;38.732;-121.358;2022-12-07T02:43:30;1.50;;;0.57;;
64966;SDS011;51710;38.732;-121.358;2022-12-07T02:46:05;1.40;;;0.60;;
64966;SDS011;51710;38.732;-121.358;2022-12-07T02:48:35;2.17;;;0.50;;
64966;SDS011;51710;38.732;-121.358;2022-12-07T02:51:05;2.83;;;0.95;;
64966;SDS011;51710;38.732;-121.358;2022-12-07T02:53:39;2.38;;;0.80;;
64966;SDS011;51710;38.732;-121.358;2022-12-07T03:01:13;2.50;;;1.17;;
64966;SDS011;51710;38.732;-121.358;2022-12-07T03:03:53;1.88;;;0.63;;
64966;SDS011;51710;38.732;-121.358;2022-12-07T03:06:49;2.17;;;0.85;;
64966;SDS011;51710;38.732;-121.358;2022-12-07T03:09:27;4.32;;;0.90;;
64966;SDS011;51710;38.732;-121.358;2022-12-07T03:12:28;1.52;;;0.60;;
64966;SDS011;51710;38.732;-121.358;2022-12-07T03:15:18;1.80;;;1.00;;
64966;SDS011;51710;38.732;-121.358;2022-12-07T03:17:52;2.10;;;0.77;;
64966;SDS011;51710;38.732;-121.358;2022-12-07T03:20:23;1.30;;;0.63;;
64966;SDS011;51710;38.732;-121.358;2022-12-07T03:22:52;3.63;;;0.98;;
64966;SDS011;51710;38.732;-121.358;2022-12-07T03:25:21;1.70;;;0.70;;
64966;SDS011;51710;38.732;-121.358;2022-12-07T03:27:58;2.88;;;0.80;;
64966;SDS011;51710;38.732;-121.358;2022-12-07T03:30:32;2.85;;;1.02;;
64966;SDS011;51710;38.732;-121.358;2022-12-07T03:33:07;3.00;;;1.23;;
64966;SDS011;51710;38.732;-121.358;2022-12-07T03:36:07;3.53;;;1.70;;
64966;SDS011;51710;38.732;-121.358;2022-12-07T03:38:48;4.10;;;2.00;;
64966;SDS011;51710;38.732;-121.358;2022-12-07T03:41:24;5.40;;;1.58;;
64966;SDS011;51710;38.732;-121.358;2022-12-07T03:43:55;2.58;;;0.93;;
64966;SDS011;51710;38.732;-121.358;2022-12-07T03:46:27;5.68;;;1.20;;
64966;SDS011;51710;38.732;-121.358;2022-12-07T03:49:27;1.63;;;0.80;;
64966;SDS011;51710;38.732;-121.358;2022-12-07T03:54:36;1.40;;;0.73;;
64966;SDS011;51710;38.732;-121.358;2022-12-07T03:57:10;2.40;;;0.90;;
64966;SDS011;51710;38.732;-121.358;2022-12-07T03:59:39;2.75;;;1.05;;
64966;SDS011;51710;38.732;-121.358;2022-12-07T04:02:07;2.08;;;0.90;;
64966;SDS011;51710;38.732;-121.358;2022-12-07T04:04:36;2.40;;;0.90;;
64966;SDS011;51710;38.732;-121.358;2022-12-07T04:07:03;2.67;;;1.00;;
64966;SDS011;51710;38.732;-121.358;2022-12-07T04:09:30;6.10;;;0.90;;
64966;SDS011;51710;38.732;-121.358;2022-12-07T04:11:57;1.45;;;0.80;;
64966;SDS011;51710;38.732;-121.358;2022-12-07T04:14:23;2.15;;;1.00;;
64966;SDS011;51710;38.732;-121.358;2022-12-07T04:16:51;2.30;;;1.00;;
64966;SDS011;51710;38.732;-121.358;2022-12-07T04:19:23;5.35;;;1.73;;
64966;SDS011;51710;38.732;-121.358;2022-12-07T04:22:00;3.38;;;1.70;;
64966;SDS011;51710;38.732;-121.358;2022-12-07T04:24:28;5.00;;;1.40;;
64966;SDS011;51710;38.732;-121.358;2022-12-07T04:26:54;3.70;;;1.50;;
64966;SDS011;51710;38.732;-121.358;2022-12-07T04:29:22;6.15;;;1.48;;
64966;SDS011;51710;38.732;-121.358;2022-12-07T04:31:49;3.63;;;1.40;;
64966;SDS011;51710;38.732;-121.358;2022-12-07T04:34:16;1.67;;;1.10;;
64966;SDS011;51710;38.732;-121.358;2022-12-07T04:36:43;4.13;;;1.20;;
64966;SDS011;51710;38.732;-121.358;2022-12-07T04:39:24;3.38;;;1.13;;
64966;SDS011;51710;38.732;-121.358;2022-12-07T04:41:56;4.53;;;1.57;;
64966;SDS011;51710;38.732;-121.358;2022-12-07T04:44:24;7.55;;;3.20;;
64966;SDS011;51710;38.732;-121.358;2022-12-07T04:46:51;12.57;;;4.57;;
64966;SDS011;51710;38.732;-121.358;2022-12-07T04:49:19;17.75;;;8.30;;
64966;SDS011;51710;38.732;-121.358;2022-12-07T04:51:47;13.48;;;6.57;;
64966;SDS011;51710;38.732;-121.358;2022-12-07T04:54:15;25.73;;;10.63;;
64966;SDS011;51710;38.732;-121.358;2022-12-07T04:56:43;32.33;;;12.88;;
64966;SDS011;51710;38.732;-121.358;2022-12-07T04:59:13;27.35;;;11.85;;
64966;SDS011;51710;38.732;-121.358;2022-12-07T05:01:41;22.33;;;11.43;;
64966;SDS011;51710;38.732;-121.358;2022-12-07T05:04:08;19.98;;;12.43;;
64966;SDS011;51710;38.732;-121.358;2022-12-07T05:06:35;23.77;;;12.75;;
64966;SDS011;51710;38.732;-121.358;2022-12-07T05:09:02;21.63;;;12.70;;
64966;SDS011;51710;38.732;-121.358;2022-12-07T05:11:29;33.92;;;19.00;;
64966;SDS011;51710;38.732;-121.358;2022-12-07T05:14:17;19.15;;;10.88;;
64966;SDS011;51710;38.732;-121.358;2022-12-07T05:16:46;15.10;;;8.25;;
64966;SDS011;51710;38.732;-121.358;2022-12-07T05:19:16;12.35;;;6.90;;
64966;SDS011;51710;38.732;-121.358;2022-12-07T05:21:44;9.88;;;5.78;;
64966;SDS011;51710;38.732;-121.358;2022-12-07T05:24:12;6.15;;;3.42;;
64966;SDS011;51710;38.732;-121.358;2022-12-07T05:26:39;9.10;;;4.97;;
64966;SDS011;51710;38.732;-121.358;2022-12-07T05:29:12;9.27;;;5.22;;
64966;SDS011;51710;38.732;-121.358;2022-12-07T05:31:40;12.25;;;6.68;;
64966;SDS011;51710;38.732;-121.358;2022-12-07T05:34:07;9.23;;;5.43;;
64966;SDS011;51710;38.732;-121.358;2022-12-07T05:36:34;9.15;;;5.00;;
64966;SDS011;51710;38.732;-121.358;2022-12-07T05:39:01;10.90;;;5.05;;
64966;SDS011;51710;38.732;-121.358;2022-12-07T05:41:28;11.30;;;4.03;;
64966;SDS011;51710;38.732;-121.358;2022-12-07T05:44:13;7.63;;;4.55;;
64966;SDS011;51710;38.732;-121.358;2022-12-07T05:46:41;7.82;;;4.82;;
64966;SDS011;51710;38.732;-121.358;2022-12-07T05:49:07;9.20;;;3.70;;
64966;SDS011;51710;38.732;-121.358;2022-12-07T05:51:34;6.40;;;3.38;;
64966;SDS011;51710;38.732;-121.358;2022-12-07T05:54:00;8.02;;;3.83;;
64966;SDS011;51710;38.732;-121.358;2022-12-07T05:56:27;9.43;;;4.28;;
64966;SDS011;51710;38.732;-121.358;2022-12-07T05:58:54;5.38;;;3.10;;
64966;SDS011;51710;38.732;-121.358;2022-12-07T06:01:39;8.50;;;3.50;;
64966;SDS011;51710;38.732;-121.358;2022-12-07T06:04:07;14.13;;;4.30;;
64966;SDS011;51710;38.732;-121.358;2022-12-07T06:06:34;10.60;;;3.85;;
64966;SDS011;51710;38.732;-121.358;2022-12-07T06:09:00;10.88;;;3.95;;
64966;SDS011;51710;38.732;-121.358;2022-12-07T06:11:27;6.90;;;3.83;;
64966;SDS011;51710;38.732;-121.358;2022-12-07T06:16:39;5.50;;;2.50;;
64966;SDS011;51710;38.732;-121.358;2022-12-07T06:19:05;4.78;;;2.42;;
64966;SDS011;51710;38.732;-121.358;2022-12-07T06:21:32;4.28;;;2.05;;
64966;SDS011;51710;38.732;-121.358;2022-12-07T06:24:03;5.05;;;2.08;;
64966;SDS011;51710;38.732;-121.358;2022-12-07T06:26:30;4.88;;;2.63;;
64966;SDS011;51710;38.732;-121.358;2022-12-07T06:28:57;5.35;;;3.00;;
64966;SDS011;51710;38.732;-121.358;2022-12-07T06:31:23;7.85;;;3.22;;
64966;SDS011;51710;38.732;-121.358;2022-12-07T06:33:50;5.68;;;3.10;;
64966;SDS011;51710;38.732;-121.358;2022-12-07T06:36:17;8.25;;;3.80;;
64966;SDS011;51710;38.732;-121.358;2022-12-07T06:38:44;5.47;;;3.05;;
64966;SDS011;51710;38.732;-121.358;2022-12-07T06:41:11;6.78;;;4.13;;
64966;SDS011;51710;38.732;-121.358;2022-12-07T06:43:38;8.13;;;4.32;;
64966;SDS011;51710;38.732;-121.358;2022-12-07T06:46:05;6.45;;;3.60;;
64966;SDS011;51710;38.732;-121.358;2022-12-07T06:48:31;5.57;;;3.42;;
64966;SDS011;51710;38.732;-121.358;2022-12-07T06:50:58;7.32;;;3.20;;
64966;SDS011;51710;38.732;-121.358;2022-12-07T06:53:25;6.60;;;2.90;;
64966;SDS011;51710;38.732;-121.358;2022-12-07T06:55:52;7.63;;;3.03;;
64966;SDS011;51710;38.732;-121.358;2022-12-07T06:58:19;4.40;;;2.70;;
64966;SDS011;51710;38.732;-121.358;2022-12-07T07:00:47;5.18;;;2.53;;
64966;SDS011;51710;38.732;-121.358;2022-12-07T07:03:15;5.25;;;2.80;;
64966;SDS011;51710;38.732;-121.358;2022-12-07T07:05:43;4.57;;;2.85;;
64966;SDS011;51710;38.732;-121.358;2022-12-07T07:08:11;5.88;;;2.72;;
64966;SDS011;51710;38.732;-121.358;2022-12-07T07:10:37;4.72;;;3.00;;
64966;SDS011;51710;38.732;-121.358;2022-12-07T07:13:05;6.38;;;3.08;;
64966;SDS011;51710;38.732;-121.358;2022-12-07T07:15:32;6.47;;;3.63;;
64966;SDS011;51710;38.732;-121.358;2022-12-07T07:17:59;7.20;;;3.78;;
64966;SDS011;51710;38.732;-121.358;2022-12-07T07:20:28;9.82;;;4.18;;
64966;SDS011;51710;38.732;-121.358;2022-12-07T07:22:54;5.97;;;3.90;;
64966;SDS011;51710;38.732;-121.358;2022-12-07T07:25:22;8.68;;;4.25;;
64966;SDS011;51710;38.732;-121.358;2022-12-07T07:27:49;7.80;;;4.68;;
64966;SDS011;51710;38.732;-121.358;2022-12-07T07:30:16;6.93;;;3.88;;
64966;SDS011;51710;38.732;-121.358;2022-12-07T07:32:43;5.30;;;3.20;;
64966;SDS011;51710;38.732;-121.358;2022-12-07T07:35:10;5.65;;;3.08;;
64966;SDS011;51710;38.732;-121.358;2022-12-07T07:37:37;5.47;;;3.45;;
64966;SDS011;51710;38.732;-121.358;2022-12-07T07:40:04;5.85;;;3.22;;
64966;SDS011;51710;38.732;-121.358;2022-12-07T07:42:32;7.20;;;3.65;;
64966;SDS011;51710;38.732;-121.358;2022-12-07T07:44:59;7.93;;;4.18;;
64966;SDS011;51710;38.732;-121.358;2022-12-07T07:47:26;9.32;;;4.28;;
64966;SDS011;51710;38.732;-121.358;2022-12-07T07:49:54;5.80;;;3.42;;
64966;SDS011;51710;38.732;-121.358;2022-12-07T07:52:20;6.55;;;3.70;;
64966;SDS011;51710;38.732;-121.358;2022-12-07T07:54:47;5.38;;;3.30;;
64966;SDS011;51710;38.732;-121.358;2022-12-07T07:57:15;4.32;;;2.65;;
64966;SDS011;51710;38.732;-121.358;2022-12-07T07:59:43;5.40;;;2.63;;
64966;SDS011;51710;38.732;-121.358;2022-12-07T08:02:13;8.63;;;2.88;;
64966;SDS011;51710;38.732;-121.358;2022-12-07T08:04:44;4.45;;;2.40;;
64966;SDS011;51710;38.732;-121.358;2022-12-07T08:07:12;5.55;;;2.05;;
64966;SDS011;51710;38.732;-121.358;2022-12-07T08:09:40;4.45;;;2.38;;
64966;SDS011;51710;38.732;-121.358;2022-12-07T08:12:07;7.57;;;2.03;;
64966;SDS011;51710;38.732;-121.358;2022-12-07T08:14:35;4.32;;;2.20;;
64966;SDS011;51710;38.732;-121.358;2022-12-07T08:17:02;5.45;;;2.47;;
64966;SDS011;51710;38.732;-121.358;2022-12-07T08:19:29;6.45;;;2.90;;
64966;SDS011;51710;38.732;-121.358;2022-12-07T08:21:55;6.10;;;2.58;;
64966;SDS011;51710;38.732;-121.358;2022-12-07T08:24:23;3.70;;;2.45;;
64966;SDS011;51710;38.732;-121.358;2022-12-07T08:26:50;3.88;;;2.10;;
64966;SDS011;51710;38.732;-121.358;2022-12-07T08:29:17;5.15;;;2.42;;
64966;SDS011;51710;38.732;-121.358;2022-12-07T08:31:45;4.75;;;2.85;;
64966;SDS011;51710;38.732;-121.358;2022-12-07T08:34:12;8.60;;;3.10;;
64966;SDS011;51710;38.732;-121.358;2022-12-07T08:36:39;6.40;;;3.30;;
64966;SDS011;51710;38.732;-121.358;2022-12-07T08:39:06;7.93;;;3.83;;
64966;SDS011;51710;38.732;-121.358;2022-12-07T08:41:33;9.55;;;4.72;;
64966;SDS011;51710;38.732;-121.358;2022-12-07T08:44:00;9.45;;;4.57;;
64966;SDS011;51710;38.732;-121.358;2022-12-07T08:51:35;8.40;;;4.30;;
64966;SDS011;51710;38.732;-121.358;2022-12-07T08:54:04;8.90;;;4.80;;
64966;SDS011;51710;38.732;-121.358;2022-12-07T08:56:34;7.80;;;4.18;;
64966;SDS011;51710;38.732;-121.358;2022-12-07T08:59:01;9.73;;;4.43;;
64966;SDS011;51710;38.732;-121.358;2022-12-07T09:01:29;6.57;;;3.70;;
64966;SDS011;51710;38.732;-121.358;2022-12-07T09:03:56;7.25;;;4.13;;
64966;SDS011;51710;38.732;-121.358;2022-12-07T09:06:23;9.18;;;5.18;;
64966;SDS011;51710;38.732;-121.358;2022-12-07T09:08:52;10.95;;;4.78;;
64966;SDS011;51710;38.732;-121.358;2022-12-07T09:11:23;13.02;;;5.38;;
64966;SDS011;51710;38.732;-121.358;2022-12-07T09:13:51;10.43;;;5.95;;
64966;SDS011;51710;38.732;-121.358;2022-12-07T09:16:17;9.93;;;6.68;;
64966;SDS011;51710;38.732;-121.358;2022-12-07T09:18:44;10.07;;;5.28;;
64966;SDS011;51710;38.732;-121.358;2022-12-07T09:21:11;12.82;;;6.80;;
64966;SDS011;51710;38.732;-121.358;2022-12-07T09:23:37;15.15;;;6.47;;
64966;SDS011;51710;38.732;-121.358;2022-12-07T09:26:05;10.30;;;6.15;;
64966;SDS011;51710;38.732;-121.358;2022-12-07T09:28:32;8.88;;;5.38;;
64966;SDS011;51710;38.732;-121.358;2022-12-07T09:30:59;13.70;;;6.05;;
64966;SDS011;51710;38.732;-121.358;2022-12-07T09:33:28;9.05;;;5.45;;
64966;SDS011;51710;38.732;-121.358;2022-12-07T09:35:55;10.73;;;6.03;;
64966;SDS011;51710;38.732;-121.358;2022-12-07T09:38:23;9.60;;;5.60;;
64966;SDS011;51710;38.732;-121.358;2022-12-07T09:40:52;14.38;;;6.38;;
64966;SDS011;51710;38.732;-121.358;2022-12-07T09:43:24;9.98;;;5.45;;
64966;SDS011;51710;38.732;-121.358;2022-12-07T09:45:52;10.63;;;5.97;;
64966;SDS011;51710;38.732;-121.358;2022-12-07T09:48:22;9.85;;;5.03;;
64966;SDS011;51710;38.732;-121.358;2022-12-07T09:51:13;9.45;;;5.50;;
64966;SDS011;51710;38.732;-121.358;2022-12-07T09:53:48;12.40;;;5.72;;
64966;SDS011;51710;38.732;-121.358;2022-12-07T09:56:17;11.75;;;5.75;;
64966;SDS011;51710;38.732;-121.358;2022-12-07T09:58:45;10.85;;;5.18;;
64966;SDS011;51710;38.732;-121.358;2022-12-07T10:01:16;11.70;;;5.10;;
64966;SDS011;51710;38.732;-121.358;2022-12-07T10:03:54;9.85;;;4.90;;
64966;SDS011;51710;38.732;-121.358;2022-12-07T10:06:24;9.07;;;4.90;;
64966;SDS011;51710;38.732;-121.358;2022-12-07T10:08:51;7.95;;;4.70;;
64966;SDS011;51710;38.732;-121.358;2022-12-07T10:11:18;7.35;;;4.40;;
64966;SDS011;51710;38.732;-121.358;2022-12-07T10:14:26;13.07;;;5.20;;
64966;SDS011;51710;38.732;-121.358;2022-12-07T10:16:39;9.45;;;4.65;;
64966;SDS011;51710;38.732;-121.358;2022-12-07T10:22:13;8.48;;;4.15;;
64966;SDS011;51710;38.732;-121.358;2022-12-07T10:24:43;10.35;;;4.35;;
64966;SDS011;51710;38.732;-121.358;2022-12-07T10:27:20;10.73;;;4.80;;
64966;SDS011;51710;38.732;-121.358;2022-12-07T10:29:52;8.27;;;4.38;;
64966;SDS011;51710;38.732;-121.358;2022-12-07T10:35:38;9.65;;;4.45;;
64966;SDS011;51710;38.732;-121.358;2022-12-07T10:37:46;9.63;;;4.72;;
64966;SDS011;51710;38.732;-121.358;2022-12-07T10:40:31;8.88;;;5.05;;
64966;SDS011;51710;38.732;-121.358;2022-12-07T10:46:05;7.10;;;4.00;;
64966;SDS011;51710;38.732;-121.358;2022-12-07T10:48:34;11.02;;;4.85;;
64966;SDS011;51710;38.732;-121.358;2022-12-07T10:51:39;10.93;;;5.53;;
64966;SDS011;51710;38.732;-121.358;2022-12-07T11:07:20;13.35;;;6.53;;
64966;SDS011;51710;38.732;-121.358;2022-12-07T11:16:19;13.25;;;6.22;;
64966;SDS011;51710;38.732;-121.358;2022-12-07T11:21:44;13.10;;;6.28;;
64966;SDS011;51710;38.732;-121.358;2022-12-07T11:24:22;14.45;;;6.90;;
64966;SDS011;51710;38.732;-121.358;2022-12-07T11:38:36;8.88;;;5.45;;
64966;SDS011;51710;38.732;-121.358;2022-12-07T11:41:27;12.93;;;6.38;;
64966;SDS011;51710;38.732;-121.358;2022-12-07T11:49:21;9.63;;;5.43;;
64966;SDS011;51710;38.732;-121.358;2022-12-07T11:52:06;11.05;;;5.90;;
64966;SDS011;51710;38.732;-121.358;2022-12-07T11:54:47;10.85;;;6.85;;
64966;SDS011;51710;38.732;-121.358;2022-12-07T11:57:20;13.82;;;5.47;;
64966;SDS011;51710;38.732;-121.358;2022-12-07T12:00:04;13.23;;;7.25;;
64966;SDS011;51710;38.732;-121.358;2022-12-07T12:02:46;11.40;;;5.53;;
64966;SDS011;51710;38.732;-121.358;2022-12-07T12:05:24;9.38;;;5.28;;
64966;SDS011;51710;38.732;-121.358;2022-12-07T12:21:54;9.95;;;5.65;;
64966;SDS011;51710;38.732;-121.358;2022-12-07T12:24:38;8.68;;;5.85;;
64966;SDS011;51710;38.732;-121.358;2022-12-07T12:27:15;16.25;;;9.50;;
64966;SDS011;51710;38.732;-121.358;2022-12-07T12:29:55;14.43;;;9.82;;
64966;SDS011;51710;38.732;-121.358;2022-12-07T12:32:36;13.15;;;8.40;;
64966;SDS011;51710;38.732;-121.358;2022-12-07T12:35:27;11.90;;;7.10;;
64966;SDS011;51710;38.732;-121.358;2022-12-07T12:40:50;11.68;;;5.95;;
64966;SDS011;51710;38.732;-121.358;2022-12-07T12:51:42;12.55;;;5.95;;
64966;SDS011;51710;38.732;-121.358;2022-12-07T12:59:36;10.50;;;5.80;;
64966;SDS011;51710;38.732;-121.358;2022-12-07T13:05:36;10.20;;;5.50;;
64966;SDS011;51710;38.732;-121.358;2022-12-07T13:07:52;10.43;;;5.15;;
64966;SDS011;51710;38.732;-121.358;2022-12-07T13:12:58;9.77;;;5.05;;
64966;SDS011;51710;38.732;-121.358;2022-12-07T13:15:33;9.45;;;5.00;;
64966;SDS011;51710;38.732;-121.358;2022-12-07T13:18:48;8.23;;;5.20;;
64966;SDS011;51710;38.732;-121.358;2022-12-07T13:20:59;9.15;;;4.78;;
64966;SDS011;51710;38.732;-121.358;2022-12-07T13:26:19;9.10;;;4.60;;
64966;SDS011;51710;38.732;-121.358;2022-12-07T13:28:52;7.18;;;4.72;;
64966;SDS011;51710;38.732;-121.358;2022-12-07T13:31:39;11.10;;;5.13;;
64966;SDS011;51710;38.732;-121.358;2022-12-07T13:37:10;7.25;;;4.10;;
64966;SDS011;51710;38.732;-121.358;2022-12-07T13:40:16;6.78;;;4.25;;
64966;SDS011;51710;38.732;-121.358;2022-12-07T13:42:58;11.70;;;5.10;;
64966;SDS011;51710;38.732;-121.358;2022-12-07T13:45:31;10.38;;;4.93;;
64966;SDS011;51710;38.732;-121.358;2022-12-07T13:48:15;8.80;;;5.30;;
64966;SDS011;51710;38.732;-121.358;2022-12-07T13:50:56;8.65;;;4.88;;
64966;SDS011;51710;38.732;-121.358;2022-12-07T13:53:24;10.85;;;5.40;;
64966;SDS011;51710;38.732;-121.358;2022-12-07T13:55:58;8.10;;;4.88;;
64966;SDS011;51710;38.732;-121.358;2022-12-07T13:58:30;8.10;;;4.45;;
64966;SDS011;51710;38.732;-121.358;2022-12-07T14:00:59;7.60;;;4.55;;
64966;SDS011;51710;38.732;-121.358;2022-12-07T14:03:30;8.05;;;4.25;;
64966;SDS011;51710;38.732;-121.358;2022-12-07T14:08:43;7.82;;;4.70;;
64966;SDS011;51710;38.732;-121.358;2022-12-07T14:11:13;10.13;;;4.97;;
64966;SDS011;51710;38.732;-121.358;2022-12-07T14:13:44;11.23;;;5.43;;
64966;SDS011;51710;38.732;-121.358;2022-12-07T14:16:28;9.25;;;4.57;;
64966;SDS011;51710;38.732;-121.358;2022-12-07T14:19:05;7.50;;;4.53;;
64966;SDS011;51710;38.732;-121.358;2022-12-07T14:22:05;10.73;;;4.45;;
64966;SDS011;51710;38.732;-121.358;2022-12-07T14:24:41;8.85;;;4.53;;
64966;SDS011;51710;38.732;-121.358;2022-12-07T14:27:18;9.13;;;4.18;;
64966;SDS011;51710;38.732;-121.358;2022-12-07T14:29:47;6.50;;;4.05;;
64966;SDS011;51710;38.732;-121.358;2022-12-07T14:35:15;8.38;;;4.43;;
64966;SDS011;51710;38.732;-121.358;2022-12-07T14:37:43;7.28;;;4.28;;
64966;SDS011;51710;38.732;-121.358;2022-12-07T14:40:16;6.88;;;4.45;;
64966;SDS011;51710;38.732;-121.358;2022-12-07T14:42:47;7.38;;;3.67;;
64966;SDS011;51710;38.732;-121.358;2022-12-07T14:45:21;7.88;;;3.90;;
64966;SDS011;51710;38.732;-121.358;2022-12-07T14:47:48;9.40;;;4.70;;
64966;SDS011;51710;38.732;-121.358;2022-12-07T14:50:17;7.97;;;4.38;;
64966;SDS011;51710;38.732;-121.358;2022-12-07T14:52:46;9.25;;;4.20;;
64966;SDS011;51710;38.732;-121.358;2022-12-07T14:55:24;5.90;;;3.65;;
64966;SDS011;51710;38.732;-121.358;2022-12-07T14:57:52;10.07;;;4.78;;
64966;SDS011;51710;38.732;-121.358;2022-12-07T15:00:20;9.50;;;4.97;;
64966;SDS011;51710;38.732;-121.358;2022-12-07T15:02:48;8.18;;;3.67;;
64966;SDS011;51710;38.732;-121.358;2022-12-07T15:05:16;6.70;;;4.38;;
64966;SDS011;51710;38.732;-121.358;2022-12-07T15:07:43;7.25;;;4.10;;
64966;SDS011;51710;38.732;-121.358;2022-12-07T15:10:18;9.48;;;4.32;;
64966;SDS011;51710;38.732;-121.358;2022-12-07T15:12:47;8.35;;;4.60;;
64966;SDS011;51710;38.732;-121.358;2022-12-07T15:15:14;11.93;;;4.35;;
64966;SDS011;51710;38.732;-121.358;2022-12-07T15:17:42;5.43;;;3.70;;
64966;SDS011;51710;38.732;-121.358;2022-12-07T15:20:13;7.63;;;4.30;;
64966;SDS011;51710;38.732;-121.358;2022-12-07T15:22:42;7.03;;;4.18;;
64966;SDS011;51710;38.732;-121.358;2022-12-07T15:25:09;5.95;;;3.75;;
64966;SDS011;51710;38.732;-121.358;2022-12-07T15:27:40;9.23;;;4.07;;
64966;SDS011;51710;38.732;-121.358;2022-12-07T15:30:07;7.68;;;3.65;;
64966;SDS011;51710;38.732;-121.358;2022-12-07T15:32:33;7.68;;;4.30;;
64966;SDS011;51710;38.732;-121.358;2022-12-07T15:35:00;7.45;;;4.03;;
64966;SDS011;51710;38.732;-121.358;2022-12-07T15:37:27;8.85;;;4.32;;
64966;SDS011;51710;38.732;-121.358;2022-12-07T15:39:53;9.18;;;4.32;;
64966;SDS011;51710;38.732;-121.358;2022-12-07T15:42:20;7.15;;;3.67;;
64966;SDS011;51710;38.732;-121.358;2022-12-07T15:44:47;8.07;;;4.10;;
64966;SDS011;51710;38.732;-121.358;2022-12-07T15:47:36;9.38;;;4.13;;
64966;SDS011;51710;38.732;-121.358;2022-12-07T15:50:09;8.68;;;4.05;;
64966;SDS011;51710;38.732;-121.358;2022-12-07T15:52:37;6.68;;;3.58;;
64966;SDS011;51710;38.732;-121.358;2022-12-07T15:55:05;9.25;;;4.13;;
64966;SDS011;51710;38.732;-121.358;2022-12-07T15:57:33;7.90;;;3.63;;
64966;SDS011;51710;38.732;-121.358;2022-12-07T16:00:03;7.65;;;4.05;;
64966;SDS011;51710;38.732;-121.358;2022-12-07T16:02:31;6.97;;;3.70;;
64966;SDS011;51710;38.732;-121.358;2022-12-07T16:04:57;7.55;;;3.80;;
64966;SDS011;51710;38.732;-121.358;2022-12-07T16:07:24;8.52;;;3.70;;
64966;SDS011;51710;38.732;-121.358;2022-12-07T16:09:51;9.10;;;4.00;;
64966;SDS011;51710;38.732;-121.358;2022-12-07T16:12:17;9.57;;;4.38;;
64966;SDS011;51710;38.732;-121.358;2022-12-07T16:14:44;12.38;;;5.15;;
64966;SDS011;51710;38.732;-121.358;2022-12-07T16:17:11;7.95;;;3.30;;
64966;SDS011;51710;38.732;-121.358;2022-12-07T16:19:38;10.48;;;4.13;;
64966;SDS011;51710;38.732;-121.358;2022-12-07T16:22:04;6.82;;;3.55;;
64966;SDS011;51710;38.732;-121.358;2022-12-07T16:24:32;7.65;;;3.25;;
64966;SDS011;51710;38.732;-121.358;2022-12-07T16:26:58;8.77;;;3.85;;
64966;SDS011;51710;38.732;-121.358;2022-12-07T16:29:25;8.27;;;3.58;;
64966;SDS011;51710;38.732;-121.358;2022-12-07T16:31:52;5.28;;;3.13;;